Huntington Beach, CA

1:34 AM PST on December 08, 2016 (GMT -0800)
Greenbrook | | Change Station

Elev 12 ft 33.70 °N, 117.98 °W | Updated 5 minutes ago

Clear
Clear
50.8 °F
Feels Like 50.8 °F
N
1.0
Wind Variable Wind from West

Today
High -- | Low -- °F
--% Chance of Precip.
Yesterday
High -- | Low -- °F
Precip. -- in
Pressure 30.17 in
Visibility 10.0 miles
Clouds Clear
Dew Point 46 °F
Humidity 84%
Rainfall 0.00 in
Snow Depth Not available.
6:44 AM 4:43 PM
First Quarter, 61% visible
METAR KSNA 080853Z AUTO 03003KT 10SM CLR 11/10 A3016 RMK AO2 SLP214 T01110100 53002
Pressure 30.17 in
Visibility 10.0 miles
Clouds Clear
Dew Point 46 °F
Humidity 84%
Rainfall 0.00 in
Snow Depth Not available.
6:44 AM 4:43 PM
First Quarter, 61% visible
METAR KSNA 080853Z AUTO 03003KT 10SM CLR 11/10 A3016 RMK AO2 SLP214 T01110100 53002

10-Day Weather Forecast

Almanac

Astronomy

Dec. 08, 2016 Rise Set
Actual Time
Civil Twilight
Nautical Twilight
Astronomical Twilight
Moon
Length of Visible Light
Length of Day
Tomorrow will be .
, % of the Moon is Illuminated

Today's Extremes

State Highs State Lows

Community

WunderPhotos

Upload Photos

1,956,259 photos uploaded!

WunderBlog® & News

Nearby

Air Quality

  Air Quality AQ Index Pollutant
Not available.

Snow Depth

Station Depth Elevation

Earthquake Activity

City Distance Mag. Time & Date
Minimum magnitude displayed is 2.5.

Coastal Water Temperatures

Place Temperature

Stations

Nearby Weather Stations

Station Location Temp. Windchill Dew Point Humidity Wind Precip. Elev Updated Type
                   

Watches & Warnings

There are currently no watches in effect.